sensor_id;sensor_type;location;lat;lon;timestamp;temperature;humidity
8132;DHT22;4107;49.212;9.198;2022-08-20T00:01:39;21.10;99.20
8132;DHT22;4107;49.212;9.198;2022-08-20T00:04:05;21.10;99.20
8132;DHT22;4107;49.212;9.198;2022-08-20T00:06:30;21.00;99.10
8132;DHT22;4107;49.212;9.198;2022-08-20T00:08:56;21.00;99.10
8132;DHT22;4107;49.212;9.198;2022-08-20T00:11:25;20.90;99.10
8132;DHT22;4107;49.212;9.198;2022-08-20T00:13:54;20.80;99.20
8132;DHT22;4107;49.212;9.198;2022-08-20T00:16:22;20.70;99.10
8132;DHT22;4107;49.212;9.198;2022-08-20T00:18:48;20.60;99.20
8132;DHT22;4107;49.212;9.198;2022-08-20T00:21:16;20.60;99.10
8132;DHT22;4107;49.212;9.198;2022-08-20T00:23:45;20.50;99.10
8132;DHT22;4107;49.212;9.198;2022-08-20T00:26:12;20.50;99.20
8132;DHT22;4107;49.212;9.198;2022-08-20T00:28:38;20.40;99.20
8132;DHT22;4107;49.212;9.198;2022-08-20T00:31:07;20.40;99.40
8132;DHT22;4107;49.212;9.198;2022-08-20T00:33:34;20.30;99.40
8132;DHT22;4107;49.212;9.198;2022-08-20T00:36:00;20.30;99.40
8132;DHT22;4107;49.212;9.198;2022-08-20T00:38:35;20.20;99.40
8132;DHT22;4107;49.212;9.198;2022-08-20T00:41:01;20.30;99.30
8132;DHT22;4107;49.212;9.198;2022-08-20T00:43:34;20.20;99.20
8132;DHT22;4107;49.212;9.198;2022-08-20T00:46:04;20.20;99.50
8132;DHT22;4107;49.212;9.198;2022-08-20T00:48:31;20.10;99.50
8132;DHT22;4107;49.212;9.198;2022-08-20T00:51:34;20.00;99.70
8132;DHT22;4107;49.212;9.198;2022-08-20T00:54:10;20.10;99.90
8132;DHT22;4107;49.212;9.198;2022-08-20T00:56:38;19.90;99.90
8132;DHT22;4107;49.212;9.198;2022-08-20T00:59:08;19.80;99.90
8132;DHT22;4107;49.212;9.198;2022-08-20T01:01:38;19.80;99.90
8132;DHT22;4107;49.212;9.198;2022-08-20T01:04:04;19.80;99.90
8132;DHT22;4107;49.212;9.198;2022-08-20T01:06:30;19.80;99.90
8132;DHT22;4107;49.212;9.198;2022-08-20T01:08:56;19.80;99.90
8132;DHT22;4107;49.212;9.198;2022-08-20T01:11:27;19.80;99.90
8132;DHT22;4107;49.212;9.198;2022-08-20T01:14:05;19.80;99.90
8132;DHT22;4107;49.212;9.198;2022-08-20T01:16:48;19.80;99.90
8132;DHT22;4107;49.212;9.198;2022-08-20T01:19:16;19.80;99.90
8132;DHT22;4107;49.212;9.198;2022-08-20T01:21:46;19.80;99.90
8132;DHT22;4107;49.212;9.198;2022-08-20T01:24:34;19.90;99.90
8132;DHT22;4107;49.212;9.198;2022-08-20T01:27:03;19.90;99.90
8132;DHT22;4107;49.212;9.198;2022-08-20T01:29:34;19.90;99.90
8132;DHT22;4107;49.212;9.198;2022-08-20T01:32:02;19.90;99.90
8132;DHT22;4107;49.212;9.198;2022-08-20T01:34:28;19.80;99.90
8132;DHT22;4107;49.212;9.198;2022-08-20T01:36:56;19.90;99.90
8132;DHT22;4107;49.212;9.198;2022-08-20T01:39:28;19.80;99.90
8132;DHT22;4107;49.212;9.198;2022-08-20T01:44:47;19.80;99.90
8132;DHT22;4107;49.212;9.198;2022-08-20T01:47:27;19.70;99.90
8132;DHT22;4107;49.212;9.198;2022-08-20T01:50:03;19.70;99.90
8132;DHT22;4107;49.212;9.198;2022-08-20T01:52:58;19.70;99.90
8132;DHT22;4107;49.212;9.198;2022-08-20T01:55:25;19.70;99.90
8132;DHT22;4107;49.212;9.198;2022-08-20T01:57:52;19.70;99.90
8132;DHT22;4107;49.212;9.198;2022-08-20T02:00:20;19.70;99.90
8132;DHT22;4107;49.212;9.198;2022-08-20T02:02:46;19.70;99.90
8132;DHT22;4107;49.212;9.198;2022-08-20T02:05:13;19.80;99.90
8132;DHT22;4107;49.212;9.198;2022-08-20T02:07:38;19.90;99.90
8132;DHT22;4107;49.212;9.198;2022-08-20T02:10:06;19.90;99.90
8132;DHT22;4107;49.212;9.198;2022-08-20T02:12:32;19.90;99.90
8132;DHT22;4107;49.212;9.198;2022-08-20T02:14:58;20.00;99.90
8132;DHT22;4107;49.212;9.198;2022-08-20T02:17:25;20.00;99.90
8132;DHT22;4107;49.212;9.198;2022-08-20T02:19:57;20.00;99.90
8132;DHT22;4107;49.212;9.198;2022-08-20T02:22:43;20.00;99.90
8132;DHT22;4107;49.212;9.198;2022-08-20T02:25:11;20.10;99.90
8132;DHT22;4107;49.212;9.198;2022-08-20T02:27:39;20.20;99.90
8132;DHT22;4107;49.212;9.198;2022-08-20T02:30:13;20.20;99.90
8132;DHT22;4107;49.212;9.198;2022-08-20T02:32:39;20.20;99.90
8132;DHT22;4107;49.212;9.198;2022-08-20T02:35:08;20.20;99.90
8132;DHT22;4107;49.212;9.198;2022-08-20T02:37:35;20.30;99.90
8132;DHT22;4107;49.212;9.198;2022-08-20T02:40:04;20.30;99.90
8132;DHT22;4107;49.212;9.198;2022-08-20T02:42:33;20.40;99.90
8132;DHT22;4107;49.212;9.198;2022-08-20T02:44:58;20.30;99.90
8132;DHT22;4107;49.212;9.198;2022-08-20T02:47:24;20.30;99.90
8132;DHT22;4107;49.212;9.198;2022-08-20T02:49:53;20.30;99.90
8132;DHT22;4107;49.212;9.198;2022-08-20T02:52:19;20.30;99.90
8132;DHT22;4107;49.212;9.198;2022-08-20T02:54:45;20.30;99.90
8132;DHT22;4107;49.212;9.198;2022-08-20T02:57:15;20.30;99.90
8132;DHT22;4107;49.212;9.198;2022-08-20T02:59:42;20.40;99.90
8132;DHT22;4107;49.212;9.198;2022-08-20T03:02:08;20.40;99.90
8132;DHT22;4107;49.212;9.198;2022-08-20T03:04:36;20.50;99.90
8132;DHT22;4107;49.212;9.198;2022-08-20T03:07:04;20.50;99.90
8132;DHT22;4107;49.212;9.198;2022-08-20T03:09:30;20.50;99.90
8132;DHT22;4107;49.212;9.198;2022-08-20T03:11:56;20.60;99.90
8132;DHT22;4107;49.212;9.198;2022-08-20T03:14:21;20.60;99.90
8132;DHT22;4107;49.212;9.198;2022-08-20T03:16:47;20.60;99.90
8132;DHT22;4107;49.212;9.198;2022-08-20T03:19:13;20.60;99.90
8132;DHT22;4107;49.212;9.198;2022-08-20T03:21:38;20.70;99.90
8132;DHT22;4107;49.212;9.198;2022-08-20T03:24:04;20.70;99.90
8132;DHT22;4107;49.212;9.198;2022-08-20T03:26:30;20.70;99.90
8132;DHT22;4107;49.212;9.198;2022-08-20T03:28:55;20.70;99.90
8132;DHT22;4107;49.212;9.198;2022-08-20T03:31:21;20.70;99.90
8132;DHT22;4107;49.212;9.198;2022-08-20T03:33:47;20.80;99.90
8132;DHT22;4107;49.212;9.198;2022-08-20T03:36:12;20.80;99.90
8132;DHT22;4107;49.212;9.198;2022-08-20T03:38:38;20.70;99.90
8132;DHT22;4107;49.212;9.198;2022-08-20T03:41:04;20.70;99.90
8132;DHT22;4107;49.212;9.198;2022-08-20T03:43:30;20.60;99.90
8132;DHT22;4107;49.212;9.198;2022-08-20T03:45:55;20.60;99.90
8132;DHT22;4107;49.212;9.198;2022-08-20T03:48:21;20.60;99.90
8132;DHT22;4107;49.212;9.198;2022-08-20T03:50:49;20.60;99.90
8132;DHT22;4107;49.212;9.198;2022-08-20T03:53:15;20.60;99.90
8132;DHT22;4107;49.212;9.198;2022-08-20T03:55:44;20.50;99.90
8132;DHT22;4107;49.212;9.198;2022-08-20T03:58:12;20.50;99.90
8132;DHT22;4107;49.212;9.198;2022-08-20T04:00:43;20.50;99.90
8132;DHT22;4107;49.212;9.198;2022-08-20T04:03:10;20.50;99.90
8132;DHT22;4107;49.212;9.198;2022-08-20T04:05:37;20.50;99.90
8132;DHT22;4107;49.212;9.198;2022-08-20T04:08:09;20.60;99.90
8132;DHT22;4107;49.212;9.198;2022-08-20T04:10:36;20.70;99.90
8132;DHT22;4107;49.212;9.198;2022-08-20T04:13:03;20.60;99.90
8132;DHT22;4107;49.212;9.198;2022-08-20T04:15:28;20.70;99.90
8132;DHT22;4107;49.212;9.198;2022-08-20T04:17:55;20.70;99.90
8132;DHT22;4107;49.212;9.198;2022-08-20T04:20:23;20.70;99.90
8132;DHT22;4107;49.212;9.198;2022-08-20T04:22:51;20.70;99.90
8132;DHT22;4107;49.212;9.198;2022-08-20T04:25:16;20.80;99.90
8132;DHT22;4107;49.212;9.198;2022-08-20T04:27:44;20.80;99.90
8132;DHT22;4107;49.212;9.198;2022-08-20T04:30:11;20.80;99.90
8132;DHT22;4107;49.212;9.198;2022-08-20T04:32:39;20.80;99.90
8132;DHT22;4107;49.212;9.198;2022-08-20T04:35:07;20.80;99.90
8132;DHT22;4107;49.212;9.198;2022-08-20T04:37:33;21.00;99.90
8132;DHT22;4107;49.212;9.198;2022-08-20T04:40:09;21.20;99.90
8132;DHT22;4107;49.212;9.198;2022-08-20T04:42:53;21.00;99.90
8132;DHT22;4107;49.212;9.198;2022-08-20T04:45:19;21.00;99.90
8132;DHT22;4107;49.212;9.198;2022-08-20T04:47:46;21.00;99.90
8132;DHT22;4107;49.212;9.198;2022-08-20T04:50:13;21.00;99.90
8132;DHT22;4107;49.212;9.198;2022-08-20T04:52:39;21.10;99.90
8132;DHT22;4107;49.212;9.198;2022-08-20T04:55:06;21.20;99.90
8132;DHT22;4107;49.212;9.198;2022-08-20T04:57:33;21.30;99.90
8132;DHT22;4107;49.212;9.198;2022-08-20T05:00:04;21.30;99.90
8132;DHT22;4107;49.212;9.198;2022-08-20T05:02:30;21.40;99.90
8132;DHT22;4107;49.212;9.198;2022-08-20T05:04:55;21.40;99.90
8132;DHT22;4107;49.212;9.198;2022-08-20T05:07:21;21.50;99.90
8132;DHT22;4107;49.212;9.198;2022-08-20T05:09:47;21.50;99.90
8132;DHT22;4107;49.212;9.198;2022-08-20T05:12:12;21.60;99.90
8132;DHT22;4107;49.212;9.198;2022-08-20T05:14:40;21.70;99.90
8132;DHT22;4107;49.212;9.198;2022-08-20T05:17:06;21.70;99.90
8132;DHT22;4107;49.212;9.198;2022-08-20T05:19:33;21.70;99.90
8132;DHT22;4107;49.212;9.198;2022-08-20T05:22:02;21.70;99.90
8132;DHT22;4107;49.212;9.198;2022-08-20T05:24:28;21.70;99.90
8132;DHT22;4107;49.212;9.198;2022-08-20T05:26:54;21.70;99.90
8132;DHT22;4107;49.212;9.198;2022-08-20T05:29:21;21.80;99.90
8132;DHT22;4107;49.212;9.198;2022-08-20T05:31:48;21.80;99.90
8132;DHT22;4107;49.212;9.198;2022-08-20T05:34:13;21.80;99.90
8132;DHT22;4107;49.212;9.198;2022-08-20T05:36:45;21.90;99.90
8132;DHT22;4107;49.212;9.198;2022-08-20T05:39:11;21.80;99.90
8132;DHT22;4107;49.212;9.198;2022-08-20T05:41:38;21.80;99.90
8132;DHT22;4107;49.212;9.198;2022-08-20T05:44:05;21.70;99.90
8132;DHT22;4107;49.212;9.198;2022-08-20T05:46:35;21.70;99.90
8132;DHT22;4107;49.212;9.198;2022-08-20T05:49:12;21.70;99.90
8132;DHT22;4107;49.212;9.198;2022-08-20T05:51:38;21.70;99.90
8132;DHT22;4107;49.212;9.198;2022-08-20T05:54:04;21.70;99.90
8132;DHT22;4107;49.212;9.198;2022-08-20T05:56:31;21.70;99.90
8132;DHT22;4107;49.212;9.198;2022-08-20T05:58:59;21.80;99.90
8132;DHT22;4107;49.212;9.198;2022-08-20T06:01:27;21.80;99.90
8132;DHT22;4107;49.212;9.198;2022-08-20T06:03:52;22.00;99.90
8132;DHT22;4107;49.212;9.198;2022-08-20T06:06:37;22.00;99.90
8132;DHT22;4107;49.212;9.198;2022-08-20T06:09:03;22.10;99.90
8132;DHT22;4107;49.212;9.198;2022-08-20T06:11:28;22.20;99.90
8132;DHT22;4107;49.212;9.198;2022-08-20T06:13:54;22.30;99.90
8132;DHT22;4107;49.212;9.198;2022-08-20T06:16:20;22.40;99.90
8132;DHT22;4107;49.212;9.198;2022-08-20T06:18:45;22.40;99.90
8132;DHT22;4107;49.212;9.198;2022-08-20T06:21:11;22.50;99.90
8132;DHT22;4107;49.212;9.198;2022-08-20T06:23:36;22.60;99.90
8132;DHT22;4107;49.212;9.198;2022-08-20T06:26:02;22.50;99.90
8132;DHT22;4107;49.212;9.198;2022-08-20T06:28:28;22.50;99.90
8132;DHT22;4107;49.212;9.198;2022-08-20T06:30:53;22.50;99.90
8132;DHT22;4107;49.212;9.198;2022-08-20T06:33:19;22.60;99.90
8132;DHT22;4107;49.212;9.198;2022-08-20T06:35:44;22.60;99.90
8132;DHT22;4107;49.212;9.198;2022-08-20T06:38:10;22.70;99.90
8132;DHT22;4107;49.212;9.198;2022-08-20T06:40:37;22.70;99.90
8132;DHT22;4107;49.212;9.198;2022-08-20T06:43:03;22.70;99.90
8132;DHT22;4107;49.212;9.198;2022-08-20T06:45:31;22.70;99.90
8132;DHT22;4107;49.212;9.198;2022-08-20T06:47:59;22.60;99.90
8132;DHT22;4107;49.212;9.198;2022-08-20T06:50:36;22.60;99.90
8132;DHT22;4107;49.212;9.198;2022-08-20T06:53:08;22.50;99.90
8132;DHT22;4107;49.212;9.198;2022-08-20T06:55:36;22.30;99.90
8132;DHT22;4107;49.212;9.198;2022-08-20T06:58:04;22.40;99.90
8132;DHT22;4107;49.212;9.198;2022-08-20T07:00:32;22.30;99.90
8132;DHT22;4107;49.212;9.198;2022-08-20T07:02:58;22.40;99.90
8132;DHT22;4107;49.212;9.198;2022-08-20T07:05:28;22.50;99.90
8132;DHT22;4107;49.212;9.198;2022-08-20T07:07:54;22.60;99.90
8132;DHT22;4107;49.212;9.198;2022-08-20T07:10:21;22.70;99.90
8132;DHT22;4107;49.212;9.198;2022-08-20T07:12:47;22.70;99.90
8132;DHT22;4107;49.212;9.198;2022-08-20T07:15:16;22.80;99.90
8132;DHT22;4107;49.212;9.198;2022-08-20T07:17:57;22.90;99.90
8132;DHT22;4107;49.212;9.198;2022-08-20T07:20:23;22.80;99.90
8132;DHT22;4107;49.212;9.198;2022-08-20T07:22:49;22.90;99.90
8132;DHT22;4107;49.212;9.198;2022-08-20T07:25:18;22.90;99.90
8132;DHT22;4107;49.212;9.198;2022-08-20T07:27:44;22.90;99.90
8132;DHT22;4107;49.212;9.198;2022-08-20T07:30:15;23.00;99.90
8132;DHT22;4107;49.212;9.198;2022-08-20T07:32:59;23.20;99.90
8132;DHT22;4107;49.212;9.198;2022-08-20T07:35:25;23.50;99.90
8132;DHT22;4107;49.212;9.198;2022-08-20T07:37:51;23.70;99.90
8132;DHT22;4107;49.212;9.198;2022-08-20T07:40:22;23.80;99.90
8132;DHT22;4107;49.212;9.198;2022-08-20T07:42:47;24.00;99.90
8132;DHT22;4107;49.212;9.198;2022-08-20T07:45:16;24.20;99.90
8132;DHT22;4107;49.212;9.198;2022-08-20T07:47:44;24.40;99.90
8132;DHT22;4107;49.212;9.198;2022-08-20T07:50:12;24.50;99.90
8132;DHT22;4107;49.212;9.198;2022-08-20T07:52:38;24.70;99.90
8132;DHT22;4107;49.212;9.198;2022-08-20T07:55:06;24.70;99.90
8132;DHT22;4107;49.212;9.198;2022-08-20T07:57:33;24.80;99.90
8132;DHT22;4107;49.212;9.198;2022-08-20T07:59:58;24.90;99.90
8132;DHT22;4107;49.212;9.198;2022-08-20T08:02:25;24.90;99.90
8132;DHT22;4107;49.212;9.198;2022-08-20T08:04:51;24.90;99.90
8132;DHT22;4107;49.212;9.198;2022-08-20T08:07:17;24.70;99.90
8132;DHT22;4107;49.212;9.198;2022-08-20T08:09:43;24.40;99.90
8132;DHT22;4107;49.212;9.198;2022-08-20T08:12:11;24.20;99.90
8132;DHT22;4107;49.212;9.198;2022-08-20T08:14:39;24.10;99.90
8132;DHT22;4107;49.212;9.198;2022-08-20T08:17:06;24.10;99.90
8132;DHT22;4107;49.212;9.198;2022-08-20T08:19:36;24.10;99.90
8132;DHT22;4107;49.212;9.198;2022-08-20T08:22:05;24.10;99.90
8132;DHT22;4107;49.212;9.198;2022-08-20T08:24:31;24.10;99.90
8132;DHT22;4107;49.212;9.198;2022-08-20T08:26:56;23.90;99.90
8132;DHT22;4107;49.212;9.198;2022-08-20T08:29:22;23.80;99.90
8132;DHT22;4107;49.212;9.198;2022-08-20T08:31:47;23.90;99.90
8132;DHT22;4107;49.212;9.198;2022-08-20T08:34:13;24.00;99.90
8132;DHT22;4107;49.212;9.198;2022-08-20T08:36:39;24.10;99.90
8132;DHT22;4107;49.212;9.198;2022-08-20T08:39:05;24.20;99.90
8132;DHT22;4107;49.212;9.198;2022-08-20T08:41:40;24.30;99.90
8132;DHT22;4107;49.212;9.198;2022-08-20T08:44:36;24.50;99.90
8132;DHT22;4107;49.212;9.198;2022-08-20T08:47:16;24.70;99.90
8132;DHT22;4107;49.212;9.198;2022-08-20T08:49:44;24.80;99.90
8132;DHT22;4107;49.212;9.198;2022-08-20T08:52:17;25.00;99.90
8132;DHT22;4107;49.212;9.198;2022-08-20T08:54:51;25.10;99.90
8132;DHT22;4107;49.212;9.198;2022-08-20T08:57:17;25.20;99.90
8132;DHT22;4107;49.212;9.198;2022-08-20T08:59:54;25.30;99.90
8132;DHT22;4107;49.212;9.198;2022-08-20T09:02:22;25.30;99.90
8132;DHT22;4107;49.212;9.198;2022-08-20T09:04:51;25.40;99.90
8132;DHT22;4107;49.212;9.198;2022-08-20T09:07:22;25.60;99.90
8132;DHT22;4107;49.212;9.198;2022-08-20T09:09:49;25.70;99.90
8132;DHT22;4107;49.212;9.198;2022-08-20T09:12:18;25.80;99.90
8132;DHT22;4107;49.212;9.198;2022-08-20T09:14:44;25.90;99.90
8132;DHT22;4107;49.212;9.198;2022-08-20T09:17:14;26.00;99.70
8132;DHT22;4107;49.212;9.198;2022-08-20T09:23:04;25.90;99.90
8132;DHT22;4107;49.212;9.198;2022-08-20T09:25:30;25.80;99.90
8132;DHT22;4107;49.212;9.198;2022-08-20T09:27:55;25.90;99.50
8132;DHT22;4107;49.212;9.198;2022-08-20T09:30:21;26.00;99.70
8132;DHT22;4107;49.212;9.198;2022-08-20T09:32:46;26.10;99.70
8132;DHT22;4107;49.212;9.198;2022-08-20T09:35:12;26.30;99.50
8132;DHT22;4107;49.212;9.198;2022-08-20T09:37:38;26.60;99.20
8132;DHT22;4107;49.212;9.198;2022-08-20T09:40:05;26.70;99.10
8132;DHT22;4107;49.212;9.198;2022-08-20T09:42:34;27.00;98.70
8132;DHT22;4107;49.212;9.198;2022-08-20T09:45:00;27.30;98.00
8132;DHT22;4107;49.212;9.198;2022-08-20T09:47:26;27.20;97.80
8132;DHT22;4107;49.212;9.198;2022-08-20T09:49:52;27.50;97.70
8132;DHT22;4107;49.212;9.198;2022-08-20T09:54:50;28.00;96.90
8132;DHT22;4107;49.212;9.198;2022-08-20T09:57:17;28.10;96.50
8132;DHT22;4107;49.212;9.198;2022-08-20T09:59:44;28.50;96.20
8132;DHT22;4107;49.212;9.198;2022-08-20T10:48:38;26.70;96.30
8132;DHT22;4107;49.212;9.198;2022-08-20T10:51:04;26.60;97.10
8132;DHT22;4107;49.212;9.198;2022-08-20T10:53:30;26.60;97.10
8132;DHT22;4107;49.212;9.198;2022-08-20T10:55:56;26.70;97.60
8132;DHT22;4107;49.212;9.198;2022-08-20T10:58:22;26.70;97.00
8132;DHT22;4107;49.212;9.198;2022-08-20T11:00:48;26.70;97.30
8132;DHT22;4107;49.212;9.198;2022-08-20T11:03:14;26.80;97.50
8132;DHT22;4107;49.212;9.198;2022-08-20T11:05:39;26.90;97.20
8132;DHT22;4107;49.212;9.198;2022-08-20T11:08:05;26.90;97.30
8132;DHT22;4107;49.212;9.198;2022-08-20T11:10:32;26.90;97.50
8132;DHT22;4107;49.212;9.198;2022-08-20T11:13:03;26.60;98.10
8132;DHT22;4107;49.212;9.198;2022-08-20T11:15:29;26.20;99.90
8132;DHT22;4107;49.212;9.198;2022-08-20T11:17:55;25.70;99.90
8132;DHT22;4107;49.212;9.198;2022-08-20T11:20:22;25.40;99.90
8132;DHT22;4107;49.212;9.198;2022-08-20T11:22:50;25.00;99.90
8132;DHT22;4107;49.212;9.198;2022-08-20T11:25:15;24.70;99.90
8132;DHT22;4107;49.212;9.198;2022-08-20T11:27:46;24.50;99.90
8132;DHT22;4107;49.212;9.198;2022-08-20T11:30:16;24.40;99.90
8132;DHT22;4107;49.212;9.198;2022-08-20T11:32:42;24.30;99.90
8132;DHT22;4107;49.212;9.198;2022-08-20T11:35:08;24.10;99.90
8132;DHT22;4107;49.212;9.198;2022-08-20T11:37:34;24.30;99.90
8132;DHT22;4107;49.212;9.198;2022-08-20T11:40:00;24.20;99.90
8132;DHT22;4107;49.212;9.198;2022-08-20T11:42:26;24.20;99.90
8132;DHT22;4107;49.212;9.198;2022-08-20T11:44:51;24.30;99.90
8132;DHT22;4107;49.212;9.198;2022-08-20T11:47:23;24.50;99.90
8132;DHT22;4107;49.212;9.198;2022-08-20T11:50:00;24.80;99.90
8132;DHT22;4107;49.212;9.198;2022-08-20T11:52:27;25.20;99.90
8132;DHT22;4107;49.212;9.198;2022-08-20T11:54:54;25.60;99.90
8132;DHT22;4107;49.212;9.198;2022-08-20T11:57:21;25.90;99.90
8132;DHT22;4107;49.212;9.198;2022-08-20T11:59:48;26.40;99.90
8132;DHT22;4107;49.212;9.198;2022-08-20T12:02:14;27.00;99.90
8132;DHT22;4107;49.212;9.198;2022-08-20T12:53:22;29.40;92.90
8132;DHT22;4107;49.212;9.198;2022-08-20T12:55:48;29.40;93.20
8132;DHT22;4107;49.212;9.198;2022-08-20T12:58:14;29.50;93.40
8132;DHT22;4107;49.212;9.198;2022-08-20T13:00:42;29.70;92.80
8132;DHT22;4107;49.212;9.198;2022-08-20T13:03:10;29.80;92.00
8132;DHT22;4107;49.212;9.198;2022-08-20T13:05:36;29.90;91.60
8132;DHT22;4107;49.212;9.198;2022-08-20T13:08:10;29.90;91.80
8132;DHT22;4107;49.212;9.198;2022-08-20T13:10:37;30.00;91.70
8132;DHT22;4107;49.212;9.198;2022-08-20T13:13:09;29.90;91.60
8132;DHT22;4107;49.212;9.198;2022-08-20T13:15:36;29.70;91.00
8132;DHT22;4107;49.212;9.198;2022-08-20T13:18:03;29.60;91.50
8132;DHT22;4107;49.212;9.198;2022-08-20T13:20:29;29.60;92.10
8132;DHT22;4107;49.212;9.198;2022-08-20T13:22:55;29.50;91.50
8132;DHT22;4107;49.212;9.198;2022-08-20T13:25:22;29.50;91.80
8132;DHT22;4107;49.212;9.198;2022-08-20T13:27:48;29.40;91.00
8132;DHT22;4107;49.212;9.198;2022-08-20T13:30:16;29.30;91.30
8132;DHT22;4107;49.212;9.198;2022-08-20T13:32:43;29.20;91.80
8132;DHT22;4107;49.212;9.198;2022-08-20T13:35:10;29.10;91.50
8132;DHT22;4107;49.212;9.198;2022-08-20T13:37:36;29.20;91.80
8132;DHT22;4107;49.212;9.198;2022-08-20T13:40:03;29.10;92.30
8132;DHT22;4107;49.212;9.198;2022-08-20T13:42:29;29.10;91.90
8132;DHT22;4107;49.212;9.198;2022-08-20T13:44:55;29.20;92.00
8132;DHT22;4107;49.212;9.198;2022-08-20T13:47:22;29.10;91.80
8132;DHT22;4107;49.212;9.198;2022-08-20T13:49:54;29.10;91.90
8132;DHT22;4107;49.212;9.198;2022-08-20T13:52:20;29.00;92.00
8132;DHT22;4107;49.212;9.198;2022-08-20T13:54:45;29.00;91.50
8132;DHT22;4107;49.212;9.198;2022-08-20T13:57:14;29.10;91.20
8132;DHT22;4107;49.212;9.198;2022-08-20T13:59:48;29.10;90.80
8132;DHT22;4107;49.212;9.198;2022-08-20T14:02:15;29.10;90.60
8132;DHT22;4107;49.212;9.198;2022-08-20T14:04:41;29.20;91.30
8132;DHT22;4107;49.212;9.198;2022-08-20T14:07:20;29.20;91.00
8132;DHT22;4107;49.212;9.198;2022-08-20T14:09:50;29.20;90.20
8132;DHT22;4107;49.212;9.198;2022-08-20T14:12:16;29.30;90.20
8132;DHT22;4107;49.212;9.198;2022-08-20T14:14:42;29.40;89.80
8132;DHT22;4107;49.212;9.198;2022-08-20T14:19:43;29.30;89.50
8132;DHT22;4107;49.212;9.198;2022-08-20T14:22:09;29.40;90.00
8132;DHT22;4107;49.212;9.198;2022-08-20T14:24:35;29.40;88.40
8132;DHT22;4107;49.212;9.198;2022-08-20T14:27:08;29.30;88.80
8132;DHT22;4107;49.212;9.198;2022-08-20T14:29:35;29.40;87.70
8132;DHT22;4107;49.212;9.198;2022-08-20T14:32:01;29.50;89.40
8132;DHT22;4107;49.212;9.198;2022-08-20T14:34:27;29.40;87.40
8132;DHT22;4107;49.212;9.198;2022-08-20T14:36:53;29.40;87.10
8132;DHT22;4107;49.212;9.198;2022-08-20T14:39:19;29.50;88.00
8132;DHT22;4107;49.212;9.198;2022-08-20T14:41:44;29.40;86.50
8132;DHT22;4107;49.212;9.198;2022-08-20T14:44:10;29.30;87.90
8132;DHT22;4107;49.212;9.198;2022-08-20T14:46:36;29.30;88.00
8132;DHT22;4107;49.212;9.198;2022-08-20T14:49:02;29.00;86.50
8132;DHT22;4107;49.212;9.198;2022-08-20T14:51:27;29.00;86.60
8132;DHT22;4107;49.212;9.198;2022-08-20T14:53:53;29.00;87.30
8132;DHT22;4107;49.212;9.198;2022-08-20T14:56:18;29.00;87.50
8132;DHT22;4107;49.212;9.198;2022-08-20T14:58:44;28.90;88.90
8132;DHT22;4107;49.212;9.198;2022-08-20T15:01:10;29.00;87.60
8132;DHT22;4107;49.212;9.198;2022-08-20T15:03:35;29.10;88.20
8132;DHT22;4107;49.212;9.198;2022-08-20T15:06:01;29.00;89.50
8132;DHT22;4107;49.212;9.198;2022-08-20T15:08:26;29.10;90.00
8132;DHT22;4107;49.212;9.198;2022-08-20T15:10:52;29.20;88.90
8132;DHT22;4107;49.212;9.198;2022-08-20T15:13:18;29.40;88.80
8132;DHT22;4107;49.212;9.198;2022-08-20T15:15:44;29.50;86.10
8132;DHT22;4107;49.212;9.198;2022-08-20T15:18:10;29.50;85.10
8132;DHT22;4107;49.212;9.198;2022-08-20T15:20:36;29.60;86.00
8132;DHT22;4107;49.212;9.198;2022-08-20T15:23:02;29.60;86.00
8132;DHT22;4107;49.212;9.198;2022-08-20T15:25:30;29.70;75.70
8132;DHT22;4107;49.212;9.198;2022-08-20T15:27:58;29.80;77.50
8132;DHT22;4107;49.212;9.198;2022-08-20T15:30:26;29.80;71.10
8132;DHT22;4107;49.212;9.198;2022-08-20T15:32:52;30.00;71.80
8132;DHT22;4107;49.212;9.198;2022-08-20T15:35:17;29.90;71.40
8132;DHT22;4107;49.212;9.198;2022-08-20T15:37:48;29.90;72.50
8132;DHT22;4107;49.212;9.198;2022-08-20T15:40:17;30.10;70.40
8132;DHT22;4107;49.212;9.198;2022-08-20T15:42:44;30.40;68.60
8132;DHT22;4107;49.212;9.198;2022-08-20T15:45:11;30.30;67.10
8132;DHT22;4107;49.212;9.198;2022-08-20T15:47:47;30.30;67.40
8132;DHT22;4107;49.212;9.198;2022-08-20T15:50:38;30.40;68.00
8132;DHT22;4107;49.212;9.198;2022-08-20T15:53:10;30.40;71.60
8132;DHT22;4107;49.212;9.198;2022-08-20T15:55:41;30.50;75.60
8132;DHT22;4107;49.212;9.198;2022-08-20T15:58:10;30.60;73.30
8132;DHT22;4107;49.212;9.198;2022-08-20T16:11:41;30.10;75.80
8132;DHT22;4107;49.212;9.198;2022-08-20T16:14:11;29.90;76.50
8132;DHT22;4107;49.212;9.198;2022-08-20T16:17:00;29.80;77.50
8132;DHT22;4107;49.212;9.198;2022-08-20T16:19:34;29.60;83.10
8132;DHT22;4107;49.212;9.198;2022-08-20T16:22:02;29.60;84.50
8132;DHT22;4107;49.212;9.198;2022-08-20T16:24:29;29.50;83.50
8132;DHT22;4107;49.212;9.198;2022-08-20T16:27:17;29.50;84.80
8132;DHT22;4107;49.212;9.198;2022-08-20T16:32:44;29.20;84.20
8132;DHT22;4107;49.212;9.198;2022-08-20T16:40:42;29.00;85.40
8132;DHT22;4107;49.212;9.198;2022-08-20T16:43:16;28.90;83.10
8132;DHT22;4107;49.212;9.198;2022-08-20T16:45:47;28.90;84.10
8132;DHT22;4107;49.212;9.198;2022-08-20T16:48:13;28.80;86.30
8132;DHT22;4107;49.212;9.198;2022-08-20T16:50:56;28.80;84.90
8132;DHT22;4107;49.212;9.198;2022-08-20T16:53:24;28.70;85.80
8132;DHT22;4107;49.212;9.198;2022-08-20T16:55:51;28.50;86.90
8132;DHT22;4107;49.212;9.198;2022-08-20T16:58:17;28.50;87.00
8132;DHT22;4107;49.212;9.198;2022-08-20T17:00:42;28.20;85.50
8132;DHT22;4107;49.212;9.198;2022-08-20T17:03:26;28.10;85.00
8132;DHT22;4107;49.212;9.198;2022-08-20T17:05:55;28.10;86.50
8132;DHT22;4107;49.212;9.198;2022-08-20T17:08:32;28.00;85.70
8132;DHT22;4107;49.212;9.198;2022-08-20T17:11:10;27.90;84.70
8132;DHT22;4107;49.212;9.198;2022-08-20T17:13:41;27.90;82.20
8132;DHT22;4107;49.212;9.198;2022-08-20T17:18:44;27.90;84.90
8132;DHT22;4107;49.212;9.198;2022-08-20T17:21:11;27.90;85.20
8132;DHT22;4107;49.212;9.198;2022-08-20T17:23:40;28.00;82.40
8132;DHT22;4107;49.212;9.198;2022-08-20T17:26:30;28.00;81.60
8132;DHT22;4107;49.212;9.198;2022-08-20T17:28:59;28.10;81.10
8132;DHT22;4107;49.212;9.198;2022-08-20T17:31:34;28.00;81.10
8132;DHT22;4107;49.212;9.198;2022-08-20T17:34:01;28.00;77.90
8132;DHT22;4107;49.212;9.198;2022-08-20T17:36:26;27.90;73.90
8132;DHT22;4107;49.212;9.198;2022-08-20T17:38:54;27.90;66.90
8132;DHT22;4107;49.212;9.198;2022-08-20T17:41:30;27.90;64.50
8132;DHT22;4107;49.212;9.198;2022-08-20T17:44:04;27.90;61.80
8132;DHT22;4107;49.212;9.198;2022-08-20T17:46:34;27.80;60.80
8132;DHT22;4107;49.212;9.198;2022-08-20T17:49:06;27.70;61.20
8132;DHT22;4107;49.212;9.198;2022-08-20T17:51:43;27.60;60.50
8132;DHT22;4107;49.212;9.198;2022-08-20T17:54:15;27.50;61.00
8132;DHT22;4107;49.212;9.198;2022-08-20T17:56:44;27.40;60.90
8132;DHT22;4107;49.212;9.198;2022-08-20T17:59:20;27.30;59.70
8132;DHT22;4107;49.212;9.198;2022-08-20T18:01:47;27.20;60.00
8132;DHT22;4107;49.212;9.198;2022-08-20T18:04:13;27.10;58.70
8132;DHT22;4107;49.212;9.198;2022-08-20T18:06:54;27.00;60.10
8132;DHT22;4107;49.212;9.198;2022-08-20T18:09:25;26.80;60.00
8132;DHT22;4107;49.212;9.198;2022-08-20T18:15:17;26.60;60.20
8132;DHT22;4107;49.212;9.198;2022-08-20T18:23:34;26.20;60.40
8132;DHT22;4107;49.212;9.198;2022-08-20T18:26:14;26.10;60.70
8132;DHT22;4107;49.212;9.198;2022-08-20T18:28:49;26.00;59.90